• Join FlightAware (Why Join?)
  • Login
  • US Flag 
07:57PM EDT


 

Airport Tracker/Info


-or-


 

Live Flight TrackerFlight Track Log ✈ SWA3225 ✈ 01-Nov-2013 ✈ KHOU - KBWI

Flight Track Log - Related Links

Times and Time Zones

All times are in EDT time to prevent confusion due to time zone crossing. See the SWA3225 flight status page for this flight to view local times or setup timezone preferences in your user account.

Time Position Orientation Groundspeed Altitude Reporting Facility
EDT Latitude Longitude Course Direction KTS MPH feet Rate Location/Type
08:20AM 29.6380 -95.2420 38° Northeast 191 220 1,700  Level FlightAware
08:21AM 29.6540 -95.2360 18° North 214 246 2,300 2,700 Climbing FlightAware
08:22AM 29.7200 -95.2530 347° North 253 291 5,300 3,300 Climbing FlightAware
08:22AM 29.7750 -95.2660 348° North 251 289 8,400 3,240 Climbing FlightAware
08:23AM 29.8170 -95.2730 352° North 280 322 9,800 1,860 Climbing FlightAware
08:24AM 29.9070 -95.2350 20° North 366 421 11,500 1,800 Climbing FlightAware
08:25AM 29.9710 -95.2060 21° North 391 450 12,900 2,040 Climbing FlightAware
08:25AM 30.0490 -95.1690 22° Northeast 418 481 14,400 2,100 Climbing FlightAware
08:26AM 30.1090 -95.1420 21° North 431 496 15,700 2,100 Climbing FlightAware
08:27AM 30.2090 -95.0960 22° Northeast 453 521 17,400 1,800 Climbing FlightAware
08:28AM 30.3120 -95.0490 21° North 475 547 18,900 1,800 Climbing FlightAware
08:29AM 30.4120 -94.9980 24° Northeast 494 568 20,500 2,040 Climbing FlightAware
08:29AM 30.5070 -94.9260 33° Northeast 504 580 22,200 1,800 Climbing FlightAware
08:30AM 30.5770 -94.8730 33° Northeast 515 593 23,000 1,380 Climbing FlightAware
08:31AM 30.6580 -94.8110 33° Northeast 526 605 24,000 1,500 Climbing FlightAware
08:31AM 30.7210 -94.7620 34° Northeast 531 611 24,800 1,680 Climbing FlightAware
08:32AM 30.7880 -94.7110 33° Northeast 532 612 25,800 1,740 Climbing FlightAware
08:32AM 30.8670 -94.6500 34° Northeast 534 615 26,900 1,560 Climbing FlightAware
08:33AM 30.9550 -94.5820 34° Northeast 540 621 27,900 1,380 Climbing FlightAware
08:34AM 31.0640 -94.4980 33° Northeast 546 628 29,100 780 Climbing FlightAware
08:35AM 31.1390 -94.4410 33° Northeast 546 628 29,200 60 Climbing FlightAware
08:35AM 31.2250 -94.3750 33° Northeast 546 628 29,200  Level FlightAware
08:36AM 31.2900 -94.3260 33° Northeast 546 628 29,200  Level FlightAware
08:37AM 31.3550 -94.2770 33° Northeast 546 628 29,200 3,960 Level FlightAware
08:37AM 31.4920 -94.1630 35° Northeast 505 581 35,000 4,260 Climbing FlightAware
08:38AM 31.5430 -94.1250 32° Northeast 505 581 35,000  Level FlightAware
08:39AM 31.6210 -94.0650 33° Northeast 505 581 35,000  Level FlightAware
08:39AM 31.6810 -94.0190 33° Northeast 505 581 35,000  Level FlightAware
08:40AM 31.7610 -93.9580 33° Northeast 505 581 35,000  Level FlightAware
08:41AM 31.8380 -93.9000 33° Northeast 505 581 35,000  Level FlightAware
08:41AM 31.8790 -93.8680 34° Northeast 505 581 35,000  Level FlightAware
08:42AM 31.9390 -93.8220 33° Northeast 505 581 35,000  Level FlightAware
08:42AM 31.9990 -93.7760 33° Northeast 505 581 35,000 900 Level FlightAware
08:44AM 32.2240 -93.5830 36° Northeast 492 566 36,800 780 Climbing FlightAware
08:45AM 32.3020 -93.5210 34° Northeast 492 566 36,800  Level FlightAware
08:45AM 32.3410 -93.4900 34° Northeast 492 566 36,800  Level FlightAware
08:46AM 32.4190 -93.4270 34° Northeast 492 566 36,800  Level FlightAware
08:47AM 32.4790 -93.3800 33° Northeast 492 566 36,800  Level FlightAware
08:47AM 32.5380 -93.3320 34° Northeast 492 566 36,800  Level FlightAware
08:48AM 32.6150 -93.2710 34° Northeast 492 566 36,800  Level FlightAware
08:49AM 32.6940 -93.2080 34° Northeast 492 566 36,800  Level FlightAware
08:49AM 32.7540 -93.1590 34° Northeast 492 566 36,800  Level FlightAware
08:50AM 32.8280 -93.1000 34° Northeast 492 566 36,800  Level FlightAware
08:51AM 32.8860 -93.0530 34° Northeast 492 566 36,800  Level FlightAware
08:51AM 32.9440 -93.0070 34° Northeast 492 566 36,800  Level FlightAware
08:52AM 33.0210 -92.9450 34° Northeast 492 566 36,800  Level FlightAware
08:53AM 33.0990 -92.8820 34° Northeast 492 566 36,800 60 Level FlightAware
08:54AM 33.2944 -92.6544 34° Northeast 480 552 37,000 60 Climbing Fort Worth Center
08:56AM 33.3947 -92.3703 67° East 536 617 37,000  Level Memphis Center
08:57AM 33.4428 -92.2319 67° East 517 595 37,000  Level Memphis Center
08:58AM 33.4994 -92.0786 66° East 504 580 37,000  Level Memphis Center
08:59AM 33.5536 -91.9250 67° East 498 573 37,000  Level Memphis Center
09:00AM 33.6219 -91.7792 61° Northeast 498 573 37,000  Level Memphis Center
09:05AM 34.0000 -91.0630 61° Northeast 504 580 37,000  Level FlightAware
09:06AM 34.0780 -90.9130 58° Northeast 507 583 37,000  Level FlightAware
09:06AM 34.1240 -90.8230 58° Northeast 509 586 37,000  Level FlightAware
09:07AM 34.1870 -90.7010 58° Northeast 511 588 37,000  Level FlightAware
09:08AM 34.2200 -90.6370 58° Northeast 512 589 37,000  Level FlightAware
09:08AM 34.2880 -90.5040 58° Northeast 513 590 37,000  Level FlightAware
09:09AM 34.3370 -90.4090 58° Northeast 512 589 37,000  Level FlightAware
09:10AM 34.4090 -90.2660 59° Northeast 511 588 37,000  Level FlightAware
09:11AM 34.4470 -90.1930 58° Northeast 512 589 37,000  Level FlightAware
09:11AM 34.5030 -90.0810 59° Northeast 511 588 37,000  Level FlightAware
09:12AM 34.5630 -89.9630 58° Northeast 511 588 37,000  Level FlightAware
09:13AM 34.6500 -89.7890 59° Northeast 513 590 37,000  Level FlightAware
09:14AM 34.6900 -89.7080 59° Northeast 514 592 37,000  Level FlightAware
09:15AM 34.7380 -89.6130 58° Northeast 515 593 37,000  Level FlightAware
09:15AM 34.7600 -89.5680 59° Northeast 516 594 37,000  Level FlightAware
09:16AM 34.8150 -89.4610 58° Northeast 516 594 37,000  Level FlightAware
09:16AM 34.8670 -89.3600 58° Northeast 516 594 37,000  Level FlightAware
09:17AM 34.9050 -89.2850 58° Northeast 516 594 37,000  Level FlightAware
09:18AM 34.9570 -89.1840 58° Northeast 516 594 37,000  Level FlightAware
09:19AM 35.0330 -89.0160 61° Northeast 522 601 37,000  Level FlightAware
09:19AM 35.0830 -88.9130 59° Northeast 523 602 37,000  Level FlightAware
09:20AM 35.1260 -88.8250 59° Northeast 524 603 37,000  Level FlightAware
09:20AM 35.1770 -88.7200 59° Northeast 524 603 37,000  Level FlightAware
09:21AM 35.2230 -88.6260 59° Northeast 523 602 37,000  Level FlightAware
09:22AM 35.2590 -88.5500 60° Northeast 522 601 37,000  Level FlightAware
09:23AM 35.3340 -88.3960 59° Northeast 522 601 37,000  Level FlightAware
09:23AM 35.3880 -88.2860 59° Northeast 522 601 37,000  Level FlightAware
09:24AM 35.4280 -88.2040 59° Northeast 522 601 37,000  Level FlightAware
09:25AM 35.4660 -88.1260 59° Northeast 522 601 37,000  Level FlightAware
09:25AM 35.5040 -88.0480 59° Northeast 522 601 37,000  Level FlightAware
09:26AM 35.5670 -87.9070 61° Northeast 524 603 37,000  Level FlightAware
09:26AM 35.5930 -87.8540 59° Northeast 524 603 37,000  Level FlightAware
09:27AM 35.6690 -87.6960 59° Northeast 524 603 37,000  Level FlightAware
09:28AM 35.7320 -87.5590 60° Northeast 523 602 37,000  Level FlightAware
09:29AM 35.7990 -87.4140 60° Northeast 525 604 37,000  Level FlightAware
09:30AM 35.8420 -87.3240 59° Northeast 524 603 37,000  Level FlightAware
09:30AM 35.8970 -87.2060 60° Northeast 526 605 37,000  Level FlightAware
09:31AM 35.9440 -87.1020 61° Northeast 527 606 37,000  Level FlightAware
09:32AM 36.0020 -86.9760 60° Northeast 528 608 37,000  Level FlightAware
09:32AM 36.0470 -86.8800 60° Northeast 528 608 37,000  Level FlightAware
09:33AM 36.0990 -86.7670 60° Northeast 529 609 37,000  Level FlightAware
09:34AM 36.1700 -86.5820 65° Northeast 530 610 37,000  Level FlightAware
09:35AM 36.2110 -86.4560 68° East 531 611 37,000  Level FlightAware
09:36AM 36.2390 -86.3680 68° East 531 611 37,000  Level FlightAware
09:36AM 36.2720 -86.2660 68° East 531 611 37,000  Level FlightAware
09:37AM 36.3050 -86.1640 68° East 531 611 37,000  Level FlightAware
09:37AM 36.3380 -86.0610 68° East 531 611 37,000  Level FlightAware
09:38AM 36.3730 -85.9510 68° East 531 611 37,000  Level FlightAware
09:39AM 36.4130 -85.8250 68° East 531 611 37,000  Level FlightAware
09:40AM 36.4550 -85.6910 69° East 530 610 37,000  Level FlightAware
09:40AM 36.4850 -85.5950 69° East 530 610 37,000  Level FlightAware
09:41AM 36.5240 -85.4700 69° East 530 610 37,000  Level FlightAware
09:41AM 36.5560 -85.3700 68° East 531 611 37,000  Level FlightAware
09:42AM 36.5890 -85.2630 69° East 531 611 37,000  Level FlightAware
09:43AM 36.6370 -85.1080 69° East 533 613 37,000  Level FlightAware
09:43AM 36.6640 -85.0080 71° East 534 615 37,000  Level FlightAware
09:44AM 36.6830 -84.9030 77° East 536 617 37,000  Level FlightAware
09:45AM 36.7060 -84.7690 78° East 539 620 37,000  Level FlightAware
09:45AM 36.7260 -84.6590 77° East 541 623 37,000  Level FlightAware
09:46AM 36.7430 -84.5590 78° East 542 624 37,000  Level FlightAware
09:47AM 36.7630 -84.4470 77° East 544 626 37,000  Level FlightAware
09:47AM 36.7820 -84.3560 75° East 547 629 37,000  Level FlightAware
09:48AM 36.8250 -84.2210 68° East 548 631 37,000  Level FlightAware
09:48AM 36.8600 -84.1160 67° East 550 633 37,000  Level FlightAware
09:49AM 36.8890 -84.0250 68° East 550 633 37,000  Level FlightAware
09:50AM 36.9380 -83.8750 68° East 551 634 37,000  Level FlightAware
09:51AM 36.9800 -83.7440 68° East 550 633 37,000  Level FlightAware
09:51AM 37.0140 -83.6360 68° East 551 634 37,000  Level FlightAware
09:52AM 37.0550 -83.5070 68° East 552 635 37,000  Level FlightAware
09:52AM 37.0900 -83.3980 68° East 552 635 37,000  Level FlightAware
09:53AM 37.1200 -83.3010 69° East 550 633 37,000  Level FlightAware
09:54AM 37.1500 -83.2070 68° East 549 632 37,000  Level FlightAware
09:54AM 37.1910 -83.0750 69° East 549 632 37,000  Level FlightAware
09:55AM 37.2260 -82.9620 69° East 547 629 37,000  Level FlightAware
09:56AM 37.2610 -82.8490 69° East 547 629 37,000  Level FlightAware
09:56AM 37.2920 -82.7510 68° East 547 629 37,000  Level FlightAware
09:57AM 37.3590 -82.5320 69° East 549 632 37,000  Level FlightAware
09:58AM 37.3880 -82.4370 69° East 551 634 37,000  Level FlightAware
09:59AM 37.4360 -82.2820 69° East 552 635 37,000  Level FlightAware
10:00AM 37.4820 -82.1280 69° East 553 636 37,000  Level FlightAware
10:00AM 37.5170 -82.0110 69° East 555 639 37,000  Level FlightAware
10:01AM 37.5830 -81.7930 69° East 557 641 37,000  Level FlightAware
10:02AM 37.6180 -81.6750 69° East 558 642 37,000  Level FlightAware
10:03AM 37.6510 -81.5640 69° East 559 643 37,000  Level FlightAware
10:04AM 37.7000 -81.3980 69° East 560 644 37,000  Level FlightAware
10:04AM 37.7380 -81.2670 70° East 561 646 37,000  Level FlightAware
10:05AM 37.7790 -81.1150 71° East 556 640 37,000  Level FlightAware
10:06AM 37.7930 -81.0100 80° East 550 633 37,000  Level FlightAware
10:06AM 37.8100 -80.8650 82° East 548 631 37,000  Level FlightAware
10:07AM 37.8220 -80.7610 82° East 548 631 37,000  Level FlightAware
10:08AM 37.8370 -80.6330 82° East 551 634 37,000  Level FlightAware
10:08AM 37.8530 -80.4890 82° East 549 632 37,000  Level FlightAware
10:09AM 37.8780 -80.3580 76° East 560 644 37,000  Level FlightAware
10:10AM 37.9260 -80.2070 68° East 562 647 37,000  Level FlightAware
10:11AM 37.9590 -80.1040 68° East 562 647 37,000  Level FlightAware
10:12AM 38.0060 -79.9560 68° East 562 647 37,000  Level FlightAware
10:12AM 38.0340 -79.8660 68° East 561 646 37,000  Level FlightAware
10:13AM 38.0770 -79.7270 69° East 560 644 37,000  Level FlightAware
10:13AM 38.1160 -79.6020 68° East 559 643 37,000 -120 Level FlightAware
10:14AM 38.1600 -79.4620 68° East 558 642 36,900 -2,340 Descending FlightAware
10:15AM 38.1850 -79.3800 69° East 564 649 34,200 -4,380 Descending FlightAware
10:15AM 38.2350 -79.2160 69° East 571 657 31,600 -2,820 Descending FlightAware
10:16AM 38.2940 -79.0260 68° East 557 641 29,000 -2,520 Descending FlightAware
10:17AM 38.3310 -78.9040 69° East 546 628 27,400 -1,500 Descending FlightAware
10:18AM 38.3620 -78.8010 69° East 519 597 27,000 -360 Descending FlightAware
10:18AM 38.4010 -78.6750 68° East 514 592 27,000 -420 Level FlightAware
10:19AM 38.4440 -78.5320 69° East 513 590 26,400 -900 Descending FlightAware
10:20AM 38.4760 -78.4230 69° East 506 582 25,700 -1,200 Descending FlightAware
10:20AM 38.5070 -78.3200 69° East 497 572 24,900 -1,740 Descending FlightAware
10:21AM 38.5470 -78.1850 69° East 485 558 23,200 -1,440 Descending FlightAware
10:22AM 38.5700 -78.1070 69° East 465 535 23,000 -180 Descending FlightAware
10:22AM 38.5980 -78.0110 70° East 466 536 23,000 -1,320 Level FlightAware
10:23AM 38.6330 -77.8910 69° East 463 533 21,200 -2,100 Descending FlightAware
10:24AM 38.6450 -77.7950 81° East 445 512 20,200 -1,620 Descending FlightAware
10:25AM 38.6530 -77.6830 85° East 426 490 19,100 -1,140 Descending FlightAware
10:25AM 38.6580 -77.5860 86° East 416 479 18,700 -1,380 Descending FlightAware
10:26AM 38.6650 -77.4670 86° East 411 473 17,100 -1,620 Descending FlightAware
10:27AM 38.6720 -77.3570 85° East 396 456 16,200 -1,200 Descending FlightAware
10:27AM 38.6770 -77.2600 86° East 404 465 15,400 -1,500 Descending FlightAware
10:28AM 38.6830 -77.1660 85° East 400 460 14,200 -1,860 Descending FlightAware
10:29AM 38.6870 -77.0870 86° East 399 459 13,100 -1,920 Descending FlightAware
10:29AM 38.6930 -76.9890 85° East 394 453 11,800 -1,800 Descending FlightAware
10:30AM 38.6970 -76.8990 87° East 374 430 10,700 -1,320 Descending FlightAware
10:31AM 38.7020 -76.8210 85° East 340 391 10,200 -1,140 Descending FlightAware
10:31AM 38.7070 -76.7520 85° East 333 383 9,400 -1,200 Descending FlightAware
10:32AM 38.7310 -76.6880 64° Northeast 321 369 8,800 -780 Descending FlightAware
10:33AM 38.7590 -76.6220 61° Northeast 294 338 8,400 -960 Descending FlightAware
10:33AM 38.7800 -76.5750 60° Northeast 285 328 7,700 -1,380 Descending FlightAware
10:34AM 38.8330 -76.5050 46° Northeast 282 325 6,300 -1,200 Descending FlightAware
10:35AM 38.8420 -76.4560 77° East 269 310 5,900 -960 Descending FlightAware
10:35AM 38.8600 -76.4010 67° East 265 305 5,200 -540 Descending FlightAware
10:36AM 38.9120 -76.3840 14° North 251 289 5,200 60 Level FlightAware
10:37AM 38.9590 -76.3810 North 254 292 5,300 60 Climbing FlightAware
10:37AM 38.9940 -76.4140 324° Northwest 202 232 5,300 -240 Level FlightAware
10:38AM 38.9970 -76.4540 276° West 174 200 5,000 -720 Descending FlightAware
10:39AM 39.0020 -76.4940 279° West 168 193 4,400 -900 Descending FlightAware
10:40AM 39.0240 -76.5320 307° West 163 188 3,700 -900 Descending FlightAware
10:40AM 39.0440 -76.5520 322° Northwest 164 189 3,200 -840 Descending FlightAware
10:41AM 39.0780 -76.5830 325° Northwest 163 188 2,500 -840 Descending FlightAware
10:42AM 39.0970 -76.6000 325° Northwest 140 161 2,000 -780 Descending FlightAware
10:42AM 39.1200 -76.6210 325° Northwest 136 157 1,500 -720 Descending FlightAware
10:43AM 39.1460 -76.6460 323° Northwest 154 177 900 -600 Descending FlightAware
10:44AM 39.1650 -76.6630 325° Northwest 156 180 700 -360 Descending FlightAware
10:51AM 39.1667 -76.6667 339° North  Level FlightAware Approximate
10:52AM 39.1754 -76.6683 339° North  Level Estimated
10:53AM 39.1754 -76.6683 339° North  Level Estimated